KLNA/LNA METAR and TAF weather

Enter ICAO airport designator
Station Type Date Time Source
KLNA METAR 2019/12/10 03:15 UTC NOAA

KLNA 100315Z AUTO 12005KT 10SM CLR 25/22 A3013 RMK AO2 T02510215 PNO


Station Type Date Time Source
KLNA Decoded METAR 2019/12/10 03:15 UTC NOAA

Station name not available
Dec 09, 2019 - 10:15 PM EST / 2019.12.10 0315 UTC
Wind: from the ESE (120 degrees) at 6 MPH (5 KT):0
Visibility: 10 mile(s):0
Sky conditions: clear
Temperature: 77.2 F (25.1 C)
Dew Point: 70.7 F (21.5 C)
Relative Humidity: 80%
Pressure (altimeter): 30.13 in. Hg (1020 hPa)
ob: KLNA 100315Z AUTO 12005KT 10SM CLR 25/22 A3013 RMK AO2 T02510215 PNO
cycle: 3

Station Type Date Time Source
KLNA TAF UTC NOAA

Error!

Example: see airport list